Time;durP1;ratioP1;P1;durP2;ratioP2;P2;SDS_P1;SDS_P2;PMS_P1;PMS_P2;Temp;Humidity;BMP_temperature;BMP_pressure;BME280_temperature;BME280_humidity;BME280_pressure;Samples;Min_cycle;Max_cycle;Signal;HPM_P1;HPM_P2
2021/04/21 00:00:15;;;;;;;4.88;3.80;;;;;;;18.92;43.81;99348.81;2052724;28;20117;-64
2021/04/21 00:01:20;;;;;;;4.78;3.72;;;;;;;18.91;43.78;99352.53;2049080;28;20038;-63
2021/04/21 00:02:22;;;;;;;4.05;3.30;;;;;;;18.92;43.76;99341.47;2046828;29;20086;-63
2021/04/21 00:03:23;;;;;;;4.25;3.67;;;;;;;18.94;43.79;99344.03;2048065;28;20769;-63
2021/04/21 00:04:26;;;;;;;4.63;3.38;;;;;;;18.94;43.80;99346.78;2045787;28;20062;-64
2021/04/21 00:05:27;;;;;;;4.28;3.47;;;;;;;18.94;43.88;99341.31;2046769;28;20118;-64
2021/04/21 00:06:29;;;;;;;3.85;3.42;;;;;;;18.93;43.82;99345.03;2046573;29;20031;-63
2021/04/21 00:07:30;;;;;;;5.82;4.00;;;;;;;18.94;43.89;99346.78;2045615;29;20024;-63
2021/04/21 00:08:31;;;;;;;4.50;3.78;;;;;;;18.94;43.51;99349.50;2048218;28;20023;-63
2021/04/21 00:09:32;;;;;;;4.45;3.10;;;;;;;18.94;43.88;99349.50;2046434;28;20164;-64
2021/04/21 00:10:33;;;;;;;5.00;4.10;;;;;;;18.94;43.76;99344.03;2047923;28;20031;-63
2021/04/21 00:11:35;;;;;;;5.57;3.75;;;;;;;18.97;43.72;99349.16;2045028;28;20023;-64
2021/04/21 00:12:35;;;;;;;4.22;3.70;;;;;;;18.96;43.83;99348.31;2046822;28;20510;-64
2021/04/21 00:13:36;;;;;;;4.77;3.07;;;;;;;18.95;43.68;99345.75;2050299;28;20469;-63
2021/04/21 00:14:37;;;;;;;4.90;3.87;;;;;;;18.95;43.62;99345.75;2048330;28;20042;-64
2021/04/21 00:15:38;;;;;;;5.27;3.67;;;;;;;18.93;43.83;99345.03;2045167;28;20143;-64
2021/04/21 00:16:38;;;;;;;4.00;3.40;;;;;;;18.94;43.81;99344.03;2055171;28;20125;-64
2021/04/21 00:17:43;;;;;;;4.57;3.73;;;;;;;18.94;43.73;99344.03;2051861;28;20105;-65
2021/04/21 00:18:45;;;;;;;4.40;3.35;;;;;;;18.93;43.74;99339.59;2047871;28;20490;-64
2021/04/21 00:19:45;;;;;;;;;;;;;;;18.88;43.86;99341.97;2043674;28;20058;-64
2021/04/21 00:21:00;;;;;;;5.38;3.72;;;;;;;18.87;43.88;99337.53;2046026;29;20001;-64
2021/04/21 00:22:02;;;;;;;4.10;3.25;;;;;;;18.89;43.86;99340.94;2047021;28;20946;-63
2021/04/21 00:23:10;;;;;;;4.00;3.17;;;;;;;18.89;43.87;99340.94;2050556;28;20066;-64
2021/04/21 00:24:11;;;;;;;3.95;2.75;;;;;;;18.89;43.78;99340.94;2046660;28;20034;-64
2021/04/21 00:25:13;;;;;;;4.80;3.30;;;;;;;18.88;43.97;99340.09;2049315;28;20039;-64
2021/04/21 00:26:21;;;;;;;4.05;3.42;;;;;;;18.88;44.01;99340.09;2047609;28;20035;-64
2021/04/21 00:27:26;;;;;;;3.65;3.33;;;;;;;18.88;43.95;99344.69;2047440;29;20031;-63
2021/04/21 00:28:32;;;;;;;3.97;3.53;;;;;;;18.88;43.80;99342.81;2047939;28;20129;-63
2021/04/21 00:29:36;;;;;;;4.55;3.70;;;;;;;18.88;43.73;99341.97;2047655;28;20085;-63
2021/04/21 00:30:39;;;;;;;4.07;3.13;;;;;;;18.91;43.93;99341.63;2047686;28;20027;-64
2021/04/21 00:31:44;;;;;;;4.13;3.30;;;;;;;18.89;43.84;99346.38;2046023;28;20095;-64
2021/04/21 00:32:53;;;;;;;4.10;3.30;;;;;;;18.88;43.79;99342.81;2047328;28;20023;-63
2021/04/21 00:33:55;;;;;;;4.60;3.45;;;;;;;18.87;43.94;99343.00;2047815;28;20035;-63
2021/04/21 00:34:57;;;;;;;3.95;3.20;;;;;;;18.88;43.97;99344.69;2044273;28;20035;-64
2021/04/21 00:35:59;;;;;;;3.63;3.15;;;;;;;18.88;43.96;99345.53;2043016;29;20055;-63
2021/04/21 00:37:00;;;;;;;4.05;3.35;;;;;;;18.88;43.96;99341.97;2040505;29;20059;-64
2021/04/21 00:38:08;;;;;;;4.40;3.22;;;;;;;18.87;43.95;99343.84;2045561;28;20023;-64
2021/04/21 00:39:10;;;;;;;4.88;3.53;;;;;;;18.88;43.95;99340.09;2047759;29;20122;-64
2021/04/21 00:40:17;;;;;;;4.35;3.50;;;;;;;18.87;43.80;99332.06;2041840;29;20038;-64
2021/04/21 00:41:35;;;;;;;6.45;3.28;;;;;;;18.87;43.90;99332.06;2051542;28;20746;-64
2021/04/21 00:42:49;;;;;;;4.22;3.33;;;;;;;18.84;43.81;99336.00;2050056;28;20031;-64
2021/04/21 00:43:56;;;;;;;4.55;3.45;;;;;;;18.84;43.91;99328.66;2047923;28;20109;-63
2021/04/21 00:45:16;;;;;;;4.15;3.47;;;;;;;18.83;43.94;99332.38;2045756;28;20039;-63
2021/04/21 00:46:23;;;;;;;3.63;3.08;;;;;;;18.83;43.87;99326.94;2041935;29;20042;-63
2021/04/21 00:47:38;;;;;;;4.47;3.58;;;;;;;18.85;43.99;99329.50;2048004;28;20038;-63
2021/04/21 00:48:57;;;;;;;5.07;3.35;;;;;;;18.85;43.82;99324.88;2048818;28;20027;-63
2021/04/21 00:50:04;;;;;;;3.88;3.00;;;;;;;18.83;43.93;99320.63;2045365;28;20023;-64
2021/04/21 00:51:11;;;;;;;4.40;3.22;;;;;;;18.84;43.76;99325.91;2053129;28;20113;-64
2021/04/21 00:52:19;;;;;;;3.85;3.45;;;;;;;18.83;44.03;99332.38;2047603;28;20419;-63
2021/04/21 00:54:04;;;;;;;4.40;4.00;;;;;;;18.82;43.99;99327.97;2045152;29;20435;-63
2021/04/21 00:55:48;;;;;;;4.25;3.13;;;;;;;18.80;44.06;99327.28;2043157;29;20475;-64
2021/04/21 00:57:07;;;;;;;3.80;3.40;;;;;;;18.78;44.08;99323.84;2047439;28;20063;-64
2021/04/21 00:58:17;;;;;;;4.18;2.95;;;;;;;18.77;44.05;99316.69;2047007;28;20098;-63
2021/04/21 00:59:23;;;;;;;7.05;3.40;;;;;;;18.79;43.97;99317.38;2044422;28;20035;-64
2021/04/21 01:00:30;;;;;;;4.72;3.92;;;;;;;18.81;44.00;99320.81;2054040;28;20479;-63
2021/04/21 01:01:32;;;;;;;4.35;3.22;;;;;;;18.82;44.06;99324.38;2046341;29;20039;-63
2021/04/21 01:02:40;;;;;;;3.80;3.10;;;;;;;18.81;43.97;99317.19;2045058;28;20150;-64
2021/04/21 01:03:42;;;;;;;4.45;3.20;;;;;;;18.82;43.98;99314.31;2042992;28;20039;-64
2021/04/21 01:04:43;;;;;;;4.53;3.53;;;;;;;18.80;44.05;99316.34;2048348;28;20629;-63
2021/04/21 01:06:02;;;;;;;4.78;3.45;;;;;;;18.81;44.07;99311.72;2046260;29;20042;-64
2021/04/21 01:07:04;;;;;;;4.63;3.33;;;;;;;18.83;43.91;99312.44;2042298;28;20069;-64
2021/04/21 01:08:07;;;;;;;4.70;3.42;;;;;;;18.84;43.92;99305.97;2045659;29;20074;-63
2021/04/21 01:09:11;;;;;;;3.15;2.85;;;;;;;18.82;43.88;99308.84;2039865;29;20130;-64
2021/04/21 01:10:13;;;;;;;4.40;3.28;;;;;;;18.80;43.90;99308.16;2047477;29;20027;-64
2021/04/21 01:11:16;;;;;;;3.33;2.88;;;;;;;18.82;44.04;99314.31;2047133;28;20038;-64
2021/04/21 01:12:20;;;;;;;5.97;3.50;;;;;;;18.80;44.02;99310.88;2041575;29;20035;-63
2021/04/21 01:13:24;;;;;;;3.53;3.00;;;;;;;18.82;43.83;99311.56;2045934;28;20038;-63
2021/04/21 01:14:28;;;;;;;4.82;3.38;;;;;;;18.81;43.98;99307.16;2040946;28;20076;-63
2021/04/21 01:15:33;;;;;;;4.03;3.25;;;;;;;18.83;43.87;99313.28;2051024;28;20038;-64
2021/04/21 01:16:36;;;;;;;4.93;3.60;;;;;;;18.83;43.90;99309.69;2044391;28;20027;-63
2021/04/21 01:17:40;;;;;;;4.57;3.25;;;;;;;18.83;44.03;99310.53;2040120;29;20055;-64
2021/04/21 01:18:44;;;;;;;3.75;3.30;;;;;;;18.82;43.90;99308.84;2039678;29;20039;-64
2021/04/21 01:19:50;;;;;;;4.13;3.38;;;;;;;18.83;43.90;99305.09;2042981;29;20034;-64
2021/04/21 01:21:17;;;;;;;3.67;3.20;;;;;;;18.83;43.93;99309.69;2041699;28;20031;-64
2021/04/21 01:22:29;;;;;;;4.05;3.38;;;;;;;18.82;43.95;99308.84;2037501;29;20047;-64
2021/04/21 01:23:57;;;;;;;3.95;3.22;;;;;;;18.83;43.97;99313.28;2045101;28;20031;-64
2021/04/21 01:25:30;;;;;;;4.43;3.38;;;;;;;18.85;43.89;99308.50;2046058;28;20102;-64
2021/04/21 01:26:39;;;;;;;4.13;2.85;;;;;;;18.84;43.95;99303.22;2046977;29;20077;-64
2021/04/21 01:27:46;;;;;;;4.55;3.38;;;;;;;18.84;43.96;99312.28;2054662;28;20038;-63
2021/04/21 01:28:51;;;;;;;3.85;2.95;;;;;;;18.89;43.83;99310.88;2042895;28;20031;-64
2021/04/21 01:29:55;;;;;;;4.10;3.35;;;;;;;18.89;43.91;99308.16;2046840;28;20997;-64
2021/04/21 01:30:59;;;;;;;3.50;3.05;;;;;;;18.91;43.88;99306.13;2047443;29;20094;-64
2021/04/21 01:32:14;;;;;;;6.18;3.35;;;;;;;18.92;43.73;99305.13;2047156;28;20046;-64
2021/04/21 01:33:16;;;;;;;4.28;3.38;;;;;;;18.92;43.73;99308.69;2047261;28;20038;-63
2021/04/21 01:34:21;;;;;;;3.95;2.63;;;;;;;18.92;43.79;99307.84;2043865;29;20028;-64
2021/04/21 01:35:23;;;;;;;5.20;3.55;;;;;;;18.93;43.86;99304.09;2046817;28;20065;-66
2021/04/21 01:36:26;;;;;;;4.00;3.28;;;;;;;18.93;43.78;99304.94;2046568;29;20031;-64
2021/04/21 01:37:33;;;;;;;4.22;2.88;;;;;;;18.92;43.78;99311.44;2045094;29;20559;-63
2021/04/21 01:38:35;;;;;;;4.25;3.13;;;;;;;18.94;43.74;99308.53;2043693;29;20034;-64
2021/04/21 01:39:42;;;;;;;4.72;3.25;;;;;;;18.92;43.88;99303.25;2047299;28;20197;-64
2021/04/21 01:40:45;;;;;;;3.50;3.00;;;;;;;18.93;43.82;99304.09;2047308;28;20034;-64
2021/04/21 01:41:51;;;;;;;4.10;3.30;;;;;;;18.93;43.78;99309.53;2047294;28;20035;-64
2021/04/21 01:42:59;;;;;;;3.58;2.95;;;;;;;18.92;43.85;99307.84;2044130;29;20501;-64
2021/04/21 01:44:22;;;;;;;4.07;3.05;;;;;;;18.91;43.82;99317.03;2047131;28;20185;-64
2021/04/21 01:45:28;;;;;;;;;;;;;;;18.85;43.80;99313.13;2047351;29;20062;-64
2021/04/21 01:46:34;;;;;;;3.53;2.80;;;;;;;18.82;43.92;99314.31;2044175;28;19921;-64
2021/04/21 01:47:35;;;;;;;5.10;3.67;;;;;;;18.87;43.88;99310.22;2040062;29;20483;-64
2021/04/21 01:48:35;;;;;;;3.57;2.93;;;;;;;18.87;43.80;99316.53;2046548;29;20438;-64
2021/04/21 01:49:35;;;;;;;3.97;2.93;;;;;;;18.88;43.84;99312.78;2047206;28;20037;-64
2021/04/21 01:50:36;;;;;;;4.60;3.17;;;;;;;18.89;43.94;99308.16;2042189;29;20065;-63
2021/04/21 01:51:40;;;;;;;3.87;3.17;;;;;;;18.89;43.91;99313.63;2046725;29;20047;-64
2021/04/21 01:52:41;;;;;;;3.65;3.10;;;;;;;18.88;43.79;99311.94;2053006;28;20079;-63
2021/04/21 01:53:49;;;;;;;5.43;3.60;;;;;;;18.87;43.80;99312.97;2046525;28;20032;-63
2021/04/21 01:54:55;;;;;;;5.57;3.50;;;;;;;18.86;43.87;99309.34;2048532;28;20391;-64
2021/04/21 01:56:12;;;;;;;4.18;3.08;;;;;;;18.86;43.74;99303.88;2044571;28;20039;-64
2021/04/21 01:57:26;;;;;;;3.60;2.90;;;;;;;18.88;43.86;99317.38;2041380;29;20257;-64
2021/04/21 01:58:57;;;;;;;4.07;3.30;;;;;;;18.83;44.06;99305.09;2039486;29;20098;-63
2021/04/21 02:00:07;;;;;;;3.80;2.97;;;;;;;18.82;43.97;99314.31;2039477;29;20077;-64
2021/04/21 02:01:43;;;;;;;4.10;3.30;;;;;;;18.81;43.99;99314.47;2045187;29;20693;-64
2021/04/21 02:02:52;;;;;;;3.85;3.10;;;;;;;18.82;43.82;99302.53;2032863;28;20215;-63
2021/04/21 02:04:00;;;;;;;3.55;2.88;;;;;;;18.82;43.99;99308.00;2046044;28;20063;-63
2021/04/21 02:05:23;;;;;;;3.83;3.13;;;;;;;18.81;43.90;99301.69;2045856;28;20040;-64
2021/04/21 02:06:50;;;;;;;3.67;2.88;;;;;;;18.82;43.95;99308.84;2047722;28;20035;-63
2021/04/21 02:07:50;;;;;;;3.67;2.65;;;;;;;18.82;43.91;99319.78;2048820;28;20470;-64
2021/04/21 02:09:22;;;;;;;4.70;3.53;;;;;;;18.82;43.95;99314.31;2053218;28;20049;-63
2021/04/21 02:10:23;;;;;;;4.55;2.63;;;;;;;18.82;43.97;99314.31;2049041;28;20094;-63
2021/04/21 02:11:29;;;;;;;5.07;3.07;;;;;;;18.83;43.96;99315.16;2044463;29;20050;-63
2021/04/21 02:12:30;;;;;;;3.65;2.95;;;;;;;18.83;43.92;99310.53;2041793;29;20031;-63
2021/04/21 02:13:58;;;;;;;3.23;2.70;;;;;;;18.84;43.87;99311.44;2046288;29;20038;-63
2021/04/21 02:15:05;;;;;;;4.65;3.40;;;;;;;18.83;44.05;99315.16;2039218;28;20046;-64
2021/04/21 02:16:25;;;;;;;3.22;2.92;;;;;;;18.83;43.94;99318.72;2042491;29;20035;-64
2021/04/21 02:17:55;;;;;;;3.42;2.60;;;;;;;18.82;43.88;99319.78;2043695;28;20038;-63
2021/04/21 02:19:15;;;;;;;3.70;3.22;;;;;;;18.81;43.97;99318.06;2033879;29;20067;-63
2021/04/21 02:20:31;;;;;;;4.25;3.40;;;;;;;18.81;43.92;99317.19;2047237;28;20042;-64
2021/04/21 02:21:50;;;;;;;3.17;2.55;;;;;;;18.82;43.89;99314.31;2046256;28;20122;-64
2021/04/21 02:23:08;;;;;;;4.18;3.15;;;;;;;18.81;43.89;99312.63;2046226;29;20034;-64
2021/04/21 02:24:17;;;;;;;3.85;3.08;;;;;;;18.82;43.85;99308.84;2046884;28;20023;-64
2021/04/21 02:25:18;;;;;;;4.45;3.13;;;;;;;18.81;43.93;99323.53;2039306;29;20035;-63
2021/04/21 02:26:34;;;;;;;4.80;3.33;;;;;;;18.81;44.05;99315.34;2042994;29;20023;-63
2021/04/21 02:27:59;;;;;;;3.17;2.70;;;;;;;18.81;43.91;99323.53;2046090;28;20085;-64
2021/04/21 02:29:05;;;;;;;4.10;2.63;;;;;;;18.81;43.93;99325.38;2039874;28;20031;-63
2021/04/21 02:30:09;;;;;;;3.03;2.67;;;;;;;18.82;43.89;99314.31;2046594;28;20118;-64
2021/04/21 02:31:26;;;;;;;3.45;2.85;;;;;;;18.83;44.21;99321.47;2046646;28;20114;-63
2021/04/21 02:32:38;;;;;;;4.13;2.92;;;;;;;18.81;44.06;99318.06;2046297;28;20026;-64
2021/04/21 02:33:47;;;;;;;3.80;3.03;;;;;;;18.83;44.01;99321.47;2046463;29;20034;-64
2021/04/21 02:35:00;;;;;;;3.05;2.60;;;;;;;18.80;43.85;99316.34;2044983;28;20039;-63
2021/04/21 02:36:18;;;;;;;3.70;3.10;;;;;;;18.80;43.98;99319.06;2046928;28;20506;-64
2021/04/21 02:37:36;;;;;;;4.47;3.22;;;;;;;18.79;43.87;99319.22;2044186;28;20028;-64
2021/04/21 02:38:53;;;;;;;3.38;2.80;;;;;;;18.79;44.02;99317.38;2045447;29;20023;-64
2021/04/21 02:40:26;;;;;;;4.30;2.78;;;;;;;18.79;44.15;99320.13;2046711;29;20569;-65
2021/04/21 02:41:38;;;;;;;3.97;2.75;;;;;;;18.79;44.02;99325.56;2041288;29;20031;-64
2021/04/21 02:42:42;;;;;;;;;;;;;;;18.76;44.19;99320.41;2045501;28;20030;-64
2021/04/21 02:44:01;;;;;;;3.08;2.78;;;;;;;18.78;44.19;99321.13;2047079;29;19910;-63
2021/04/21 02:45:19;;;;;;;4.10;2.95;;;;;;;18.79;44.18;99308.31;2045142;28;20545;-64
2021/04/21 02:46:41;;;;;;;2.47;2.28;;;;;;;18.80;43.95;99316.34;2045888;29;20034;-64
2021/04/21 02:47:58;;;;;;;5.35;3.22;;;;;;;18.81;44.15;99311.72;2044055;29;20826;-64
2021/04/21 02:49:14;;;;;;;3.45;2.53;;;;;;;18.83;44.03;99316.00;2046929;28;20047;-63
2021/04/21 02:50:38;;;;;;;4.85;2.92;;;;;;;18.83;43.81;99321.47;2046213;29;20038;-64
2021/04/21 02:51:58;;;;;;;3.22;2.78;;;;;;;18.87;43.90;99315.69;2046764;28;20514;-64
2021/04/21 02:53:07;;;;;;;3.80;2.75;;;;;;;18.88;43.84;99322.84;2039238;29;20057;-63
2021/04/21 02:54:37;;;;;;;3.55;3.15;;;;;;;18.88;43.96;99318.25;2046177;28;20027;-63
2021/04/21 02:55:56;;;;;;;3.35;2.58;;;;;;;18.91;43.91;99317.03;2040830;29;20054;-64
2021/04/21 02:57:05;;;;;;;3.03;2.70;;;;;;;18.90;43.80;99310.75;2044752;29;20110;-63
2021/04/21 02:58:32;;;;;;;4.15;2.70;;;;;;;18.89;43.97;99311.78;2041051;29;20163;-64
2021/04/21 02:59:43;;;;;;;3.33;2.75;;;;;;;18.88;43.77;99306.47;2045671;28;20031;-64
2021/04/21 03:00:53;;;;;;;3.20;2.38;;;;;;;18.89;43.80;99313.63;2046845;28;20459;-64
2021/04/21 03:01:59;;;;;;;3.80;2.58;;;;;;;18.92;43.86;99316.03;2046991;28;20059;-64
2021/04/21 03:03:13;;;;;;;3.67;3.00;;;;;;;18.91;43.80;99311.59;2044169;28;20042;-64
2021/04/21 03:04:26;;;;;;;3.33;2.47;;;;;;;18.91;43.74;99317.03;2039312;28;20454;-63
2021/04/21 03:05:29;;;;;;;3.60;2.90;;;;;;;18.90;43.91;99316.19;2046506;29;20507;-64
2021/04/21 03:06:35;;;;;;;3.85;2.80;;;;;;;18.91;43.91;99311.59;2045447;28;20046;-64
2021/04/21 03:07:58;;;;;;;3.20;2.85;;;;;;;18.89;43.88;99319.09;2043499;29;20517;-63
2021/04/21 03:09:15;;;;;;;4.07;3.05;;;;;;;18.88;43.92;99306.47;2040852;28;20047;-63
2021/04/21 03:10:18;;;;;;;3.30;2.65;;;;;;;18.88;43.89;99309.19;2041619;28;20079;-64
2021/04/21 03:11:30;;;;;;;3.05;2.47;;;;;;;18.88;43.88;99317.38;2045028;29;20814;-63
2021/04/21 03:12:33;;;;;;;3.47;3.05;;;;;;;18.87;43.88;99312.97;2046588;29;20019;-64
2021/04/21 03:13:37;;;;;;;3.58;2.58;;;;;;;18.88;43.83;99311.94;2046257;28;20618;-64
2021/04/21 03:14:44;;;;;;;3.78;2.60;;;;;;;18.87;43.98;99310.22;2045812;28;20101;-64
2021/04/21 03:15:52;;;;;;;3.22;2.65;;;;;;;18.87;44.00;99308.34;2045739;28;20482;-64
2021/04/21 03:17:00;;;;;;;3.80;3.08;;;;;;;18.87;43.97;99312.97;2041886;29;20490;-64
2021/04/21 03:18:04;;;;;;;4.40;2.97;;;;;;;18.88;43.95;99306.47;2042401;29;20111;-63
2021/04/21 03:19:06;;;;;;;4.57;3.08;;;;;;;18.88;43.97;99307.31;2046556;28;20045;-64
2021/04/21 03:20:16;;;;;;;3.75;2.83;;;;;;;18.87;43.96;99299.31;2045641;28;20041;-64
2021/04/21 03:21:25;;;;;;;5.47;3.28;;;;;;;18.87;43.95;99308.34;2045861;29;20133;-64
2021/04/21 03:22:29;;;;;;;3.58;3.05;;;;;;;18.87;43.90;99304.78;2046447;28;20063;-64
2021/04/21 03:23:33;;;;;;;3.10;2.70;;;;;;;18.86;43.97;99306.63;2046104;28;20394;-64
2021/04/21 03:24:37;;;;;;;3.78;2.97;;;;;;;18.87;44.01;99300.16;2045214;28;20046;-64
2021/04/21 03:25:40;;;;;;;3.22;2.75;;;;;;;18.88;43.81;99306.47;2054893;28;20855;-63
2021/04/21 03:26:46;;;;;;;4.38;3.08;;;;;;;18.88;43.88;99301.00;2041621;28;20028;-64
2021/04/21 03:27:51;;;;;;;2.85;2.55;;;;;;;18.87;43.93;99294.69;2040138;29;20102;-64
2021/04/21 03:28:57;;;;;;;2.97;2.45;;;;;;;18.88;43.93;99301.84;2039098;29;20042;-63
2021/04/21 03:30:03;;;;;;;4.57;3.13;;;;;;;18.88;43.94;99299.13;2045051;29;20035;-63
2021/04/21 03:31:06;;;;;;;2.65;2.33;;;;;;;18.88;43.99;99296.38;2045883;28;20035;-64
2021/04/21 03:32:19;;;;;;;3.00;2.53;;;;;;;18.85;43.75;99305.78;2046362;28;20038;-64
2021/04/21 03:33:25;;;;;;;3.28;2.75;;;;;;;18.88;43.92;99306.47;2044672;29;20042;-64
2021/04/21 03:34:28;;;;;;;4.22;2.78;;;;;;;18.88;43.79;99311.94;2045675;29;20122;-63
2021/04/21 03:35:30;;;;;;;3.83;2.60;;;;;;;18.87;43.85;99305.63;2045913;28;20062;-64
2021/04/21 03:36:33;;;;;;;3.50;2.70;;;;;;;18.85;44.02;99303.03;2044278;28;20521;-64
2021/04/21 03:37:47;;;;;;;4.03;3.03;;;;;;;18.85;43.96;99305.78;2046670;28;20142;-63
2021/04/21 03:38:47;;;;;;;3.00;2.70;;;;;;;18.86;43.89;99303.88;2046866;28;20027;-64
2021/04/21 03:39:50;;;;;;;3.27;2.80;;;;;;;18.85;44.08;99303.03;2044388;28;20035;-64
2021/04/21 03:40:51;;;;;;;3.95;3.22;;;;;;;18.87;44.01;99311.09;2048352;28;20195;-64
2021/04/21 03:41:52;;;;;;;2.80;2.53;;;;;;;18.87;43.92;99310.22;2048428;28;20031;-64
2021/04/21 03:42:53;;;;;;;3.17;2.77;;;;;;;18.88;43.99;99309.19;2047586;28;20126;-64
2021/04/21 03:43:54;;;;;;;3.83;2.95;;;;;;;18.87;44.05;99299.31;2048425;29;20042;-64
2021/04/21 03:44:54;;;;;;;4.10;2.70;;;;;;;18.85;43.89;99307.66;2043720;28;20114;-64
2021/04/21 03:45:55;;;;;;;3.73;2.43;;;;;;;18.85;43.96;99303.03;2047235;28;20031;-64
2021/04/21 03:46:56;;;;;;;3.27;2.83;;;;;;;18.87;43.93;99304.78;2045675;29;20539;-64
2021/04/21 03:47:57;;;;;;;3.27;2.83;;;;;;;18.85;43.90;99305.78;2041841;29;20526;-64
2021/04/21 03:48:59;;;;;;;3.45;2.65;;;;;;;18.88;44.02;99307.31;2047499;29;20034;-64
2021/04/21 03:50:03;;;;;;;4.07;2.70;;;;;;;18.89;43.88;99302.69;2048260;28;20027;-65
2021/04/21 03:51:05;;;;;;;3.03;2.72;;;;;;;18.89;43.88;99302.69;2042047;29;20115;-64
2021/04/21 03:52:07;;;;;;;4.60;2.80;;;;;;;18.88;44.04;99301.84;2047405;28;20548;-63
2021/04/21 03:53:09;;;;;;;3.55;3.20;;;;;;;18.88;44.01;99298.28;2047996;28;20103;-63
2021/04/21 03:54:10;;;;;;;3.25;2.45;;;;;;;18.85;43.98;99291.28;2043816;29;20059;-64
2021/04/21 03:55:11;;;;;;;3.05;2.63;;;;;;;18.85;44.07;99300.31;2044765;28;20035;-63
2021/04/21 03:56:17;;;;;;;2.85;2.42;;;;;;;18.85;43.96;99305.78;2048107;29;20107;-64
2021/04/21 03:57:19;;;;;;;3.00;2.47;;;;;;;18.87;44.06;99299.31;2046887;28;20484;-64
2021/04/21 03:58:21;;;;;;;3.22;2.60;;;;;;;18.87;44.10;99293.84;2040309;29;20041;-64
2021/04/21 03:59:22;;;;;;;2.88;2.50;;;;;;;18.87;44.09;99296.59;2045207;29;20081;-64
2021/04/21 04:00:25;;;;;;;3.72;2.72;;;;;;;18.87;43.95;99299.31;2046380;28;20482;-64
2021/04/21 04:01:26;;;;;;;3.30;2.53;;;;;;;18.87;44.08;99299.31;2040550;28;20078;-63
2021/04/21 04:02:30;;;;;;;4.53;2.57;;;;;;;18.88;44.02;99298.28;2043473;29;20030;-64
2021/04/21 04:03:32;;;;;;;3.55;2.60;;;;;;;18.87;44.03;99293.84;2042440;29;20024;-63
2021/04/21 04:04:35;;;;;;;;;;;;;;;18.82;44.04;99306.13;2042098;29;20030;-64
2021/04/21 04:05:43;;;;;;;;;;;;;;;18.79;44.25;99308.31;2041877;28;19918;-63
2021/04/21 04:06:47;;;;;;;3.40;2.60;;;;;;;18.80;44.17;99310.88;2045361;29;19918;-64
2021/04/21 04:07:50;;;;;;;3.97;2.80;;;;;;;18.83;44.19;99306.97;2047765;28;20023;-64
2021/04/21 04:08:56;;;;;;;3.55;2.53;;;;;;;18.84;44.21;99301.34;2044775;28;20471;-64
2021/04/21 04:10:00;;;;;;;3.33;2.60;;;;;;;18.85;44.14;99303.03;2046702;28;20652;-64
2021/04/21 04:11:02;;;;;;;3.53;2.60;;;;;;;18.89;43.88;99303.56;2047327;28;20046;-63
2021/04/21 04:12:05;;;;;;;3.40;2.70;;;;;;;18.90;43.93;99309.88;2040640;29;20040;-63
2021/04/21 04:13:11;;;;;;;2.60;2.33;;;;;;;18.91;44.03;99314.31;2047825;28;20039;-63
2021/04/21 04:14:21;;;;;;;3.67;2.63;;;;;;;18.93;43.85;99309.53;2047597;28;20035;-64
2021/04/21 04:15:24;;;;;;;3.22;2.50;;;;;;;18.92;43.94;99310.59;2048056;28;20023;-63
2021/04/21 04:16:27;;;;;;;2.83;2.40;;;;;;;18.91;43.86;99306.97;2043601;28;20023;-64
2021/04/21 04:17:31;;;;;;;3.17;2.88;;;;;;;18.92;43.82;99308.69;2043967;29;20878;-64
2021/04/21 04:18:32;;;;;;;4.68;2.63;;;;;;;18.93;43.85;99309.53;2047362;28;20784;-63
2021/04/21 04:19:35;;;;;;;;;;;;;;;18.89;44.05;99313.63;2048591;28;20039;-64
2021/04/21 04:20:37;;;;;;;3.53;2.83;;;;;;;18.91;43.88;99311.59;2047679;28;19982;-64
2021/04/21 04:21:43;;;;;;;3.03;2.53;;;;;;;18.92;43.76;99307.84;2047135;29;20486;-63
2021/04/21 04:22:49;;;;;;;2.63;2.22;;;;;;;18.92;43.82;99307.84;2048120;28;20033;-64
2021/04/21 04:23:50;;;;;;;2.67;2.30;;;;;;;18.92;44.00;99305.13;2047868;28;20031;-64
2021/04/21 04:24:53;;;;;;;3.53;2.83;;;;;;;18.92;43.85;99296.94;2044117;29;20874;-64
2021/04/21 04:25:57;;;;;;;3.50;2.88;;;;;;;18.92;43.88;99308.69;2045401;28;20031;-64
2021/04/21 04:27:01;;;;;;;3.55;2.30;;;;;;;18.92;43.84;99302.38;2040577;28;20049;-64
2021/04/21 04:28:03;;;;;;;3.13;2.65;;;;;;;18.92;43.96;99307.84;2046244;29;20031;-63
2021/04/21 04:29:03;;;;;;;4.35;2.80;;;;;;;18.92;44.01;99308.69;2052350;28;20067;-64
2021/04/21 04:30:04;;;;;;;2.87;2.20;;;;;;;18.93;43.91;99309.53;2052777;28;20043;-64
2021/04/21 04:31:07;;;;;;;3.30;2.33;;;;;;;18.92;44.05;99310.59;2047579;28;20118;-64
2021/04/21 04:32:12;;;;;;;3.75;2.67;;;;;;;18.91;43.83;99306.13;2040052;29;20282;-63
2021/04/21 04:33:15;;;;;;;3.92;2.95;;;;;;;18.89;43.89;99310.88;2046841;28;20027;-64
2021/04/21 04:34:19;;;;;;;3.45;2.72;;;;;;;18.89;44.09;99308.16;2050068;28;20062;-64
2021/04/21 04:35:19;;;;;;;3.38;2.55;;;;;;;18.89;43.93;99309.03;2054915;28;20085;-63
2021/04/21 04:36:20;;;;;;;3.47;2.70;;;;;;;18.88;43.89;99311.94;2048081;28;20047;-64
2021/04/21 04:37:23;;;;;;;3.83;2.70;;;;;;;18.89;44.04;99314.50;2047711;28;20038;-64
2021/04/21 04:38:24;;;;;;;3.70;2.53;;;;;;;18.89;43.96;99311.78;2046686;29;20549;-63
2021/04/21 04:39:24;;;;;;;2.88;2.58;;;;;;;18.91;44.02;99311.59;2046161;29;20414;-64
2021/04/21 04:40:25;;;;;;;3.23;2.47;;;;;;;18.89;44.04;99314.50;2042998;28;20039;-63
2021/04/21 04:41:27;;;;;;;2.80;2.25;;;;;;;18.90;43.99;99315.34;2044919;29;20055;-64
2021/04/21 04:42:28;;;;;;;3.13;2.58;;;;;;;18.92;43.88;99316.88;2046820;28;20430;-64
2021/04/21 04:43:29;;;;;;;3.00;2.50;;;;;;;18.90;44.01;99320.81;2047308;28;20033;-63
2021/04/21 04:44:30;;;;;;;3.63;2.30;;;;;;;18.89;44.05;99319.97;2045937;28;20039;-64
2021/04/21 04:45:32;;;;;;;3.30;2.60;;;;;;;18.89;44.00;99319.97;2045287;28;20039;-63
2021/04/21 04:46:39;;;;;;;2.97;2.25;;;;;;;18.91;44.19;99322.50;2046851;28;20042;-64
2021/04/21 04:47:44;;;;;;;2.67;2.08;;;;;;;18.89;44.12;99319.97;2039388;29;20611;-64
2021/04/21 04:48:54;;;;;;;3.55;2.80;;;;;;;18.88;43.97;99315.50;2045540;28;20027;-63
2021/04/21 04:50:07;;;;;;;3.78;2.72;;;;;;;18.90;44.08;99326.28;2043660;29;20463;-63
2021/04/21 04:52:33;;;;;;;2.92;2.60;;;;;;;18.82;44.24;99317.03;2032707;28;19914;-61
2021/04/21 04:53:35;;;;;;;5.32;2.70;;;;;;;18.84;44.17;99319.63;2042177;28;20035;-62
2021/04/21 04:54:39;;;;;;;3.72;2.42;;;;;;;18.85;44.08;99324.88;2044215;28;20150;-61
2021/04/21 04:55:39;;;;;;;2.55;2.30;;;;;;;18.87;44.33;99318.41;2043585;28;20038;-61
2021/04/21 04:56:44;;;;;;;3.67;2.67;;;;;;;18.85;44.23;99318.59;2045628;28;20034;-61
2021/04/21 04:57:47;;;;;;;3.35;2.83;;;;;;;18.87;44.30;99316.53;2044548;28;20035;-61
2021/04/21 04:58:54;;;;;;;4.10;2.42;;;;;;;18.88;44.38;99322.84;2045059;28;20119;-61
2021/04/21 04:59:59;;;;;;;3.58;2.80;;;;;;;18.89;44.15;99328.16;2043581;28;20058;-61
2021/04/21 05:01:04;;;;;;;2.65;2.40;;;;;;;18.88;44.10;99329.16;2045884;28;20039;-61
2021/04/21 05:02:07;;;;;;;4.43;3.30;;;;;;;18.89;44.16;99324.53;2044745;28;20035;-61
2021/04/21 05:03:23;;;;;;;3.40;2.50;;;;;;;18.86;44.03;99320.28;2042953;28;20044;-61
2021/04/21 05:04:40;;;;;;;3.92;2.78;;;;;;;18.88;44.20;99331.03;2053057;28;20089;-61
2021/04/21 05:05:42;;;;;;;2.90;2.45;;;;;;;18.87;44.13;99326.63;2043157;29;20086;-61
2021/04/21 05:06:51;;;;;;;3.17;2.67;;;;;;;18.88;44.09;99325.59;2046533;28;20057;-61
2021/04/21 05:08:00;;;;;;;3.60;2.20;;;;;;;18.87;44.29;99327.47;2049323;28;20107;-62
2021/04/21 05:09:03;;;;;;;3.72;3.00;;;;;;;18.89;44.18;99330.00;2045292;28;20046;-61
2021/04/21 05:10:09;;;;;;;3.45;2.70;;;;;;;18.89;44.02;99332.75;2039251;29;20063;-61
2021/04/21 05:11:13;;;;;;;3.65;2.70;;;;;;;18.88;44.08;99331.88;2040662;29;20103;-61
2021/04/21 05:12:13;;;;;;;3.85;2.80;;;;;;;18.90;44.00;99326.28;2041300;28;20039;-61
2021/04/21 05:13:21;;;;;;;4.07;2.57;;;;;;;18.88;44.24;99333.78;2038602;28;20036;-61
2021/04/21 05:14:23;;;;;;;3.22;2.58;;;;;;;18.90;44.09;99335.31;2042757;28;20118;-61
2021/04/21 05:15:39;;;;;;;2.85;2.40;;;;;;;18.87;44.14;99332.06;2045798;28;20706;-61
2021/04/21 05:16:57;;;;;;;4.00;2.83;;;;;;;18.87;44.14;99337.53;2044913;28;20031;-61
2021/04/21 05:18:23;;;;;;;4.97;2.85;;;;;;;18.87;44.14;99341.13;2041155;28;20150;-61
2021/04/21 05:19:30;;;;;;;2.90;2.60;;;;;;;18.85;44.07;99337.69;2043018;28;20142;-61